Time;durP1;ratioP1;P1;durP2;ratioP2;P2;SDS_P1;SDS_P2;PMS_P1;PMS_P2;Temp;Humidity;BMP_temperature;BMP_pressure;BME280_temperature;BME280_humidity;BME280_pressure;Samples;Min_cycle;Max_cycle;Signal;HPM_P1;HPM_P2
2022/06/20 00:00:06;;;;;;;4.57;2.92;;;;;;;20.71;64.20;100097.59;6213033;23;20430;-63
2022/06/20 00:02:32;;;;;;;7.82;2.45;;;;;;;20.70;64.25;100117.75;6212851;23;20004;-63
2022/06/20 00:05:01;;;;;;;5.13;2.97;;;;;;;20.58;64.57;100105.75;6212826;23;20480;-62
2022/06/20 00:07:26;;;;;;;6.30;2.78;;;;;;;20.56;64.96;100105.09;6212613;23;20076;-62
2022/06/20 00:09:52;;;;;;;9.13;2.78;;;;;;;20.52;65.06;100104.69;6212708;23;20054;-64
2022/06/20 00:12:22;;;;;;;6.53;2.92;;;;;;;20.50;65.16;100095.84;6212599;23;20008;-62
2022/06/20 00:14:50;;;;;;;7.00;2.67;;;;;;;20.45;65.82;100098.38;6212870;23;20008;-63
2022/06/20 00:17:16;;;;;;;10.23;3.60;;;;;;;20.41;65.80;100093.53;6212889;23;20066;-62
2022/06/20 00:19:42;;;;;;;7.68;3.13;;;;;;;20.34;66.34;100087.22;6212929;23;20079;-62
2022/06/20 00:22:09;;;;;;;5.05;2.70;;;;;;;20.29;66.63;100093.25;6186339;23;20005;-62
2022/06/20 00:24:35;;;;;;;6.13;2.60;;;;;;;20.26;67.09;100095.53;6186020;23;20012;-62
2022/06/20 00:27:00;;;;;;;6.93;2.58;;;;;;;20.20;67.32;100086.31;6212581;23;20009;-63
2022/06/20 00:29:28;;;;;;;7.32;3.00;;;;;;;20.19;67.68;100085.44;6212346;23;20016;-62
2022/06/20 00:31:53;;;;;;;8.13;3.30;;;;;;;20.14;67.91;100079.78;6212441;23;20004;-62
2022/06/20 00:34:19;;;;;;;7.30;2.95;;;;;;;20.09;68.23;100075.97;6212600;23;20015;-63
2022/06/20 00:36:44;;;;;;;6.53;2.97;;;;;;;20.10;68.25;100083.94;6212533;23;20032;-62
2022/06/20 00:39:11;;;;;;;6.28;3.38;;;;;;;20.06;68.37;100065.47;6212664;23;20004;-62
2022/06/20 00:41:36;;;;;;;7.55;3.05;;;;;;;20.08;68.23;100074.25;6212703;23;20079;-63
2022/06/20 00:44:02;;;;;;;8.52;3.53;;;;;;;20.07;68.82;100058.97;6212199;23;20035;-62
2022/06/20 00:46:49;;;;;;;5.10;2.42;;;;;;;20.07;68.71;100061.69;6185551;23;20752;-62
2022/06/20 00:49:21;;;;;;;6.75;3.08;;;;;;;20.01;68.01;100060.63;6212236;23;20502;-62
2022/06/20 00:52:05;;;;;;;5.90;3.22;;;;;;;20.00;67.41;100063.53;6212152;23;20086;-63
2022/06/20 00:54:46;;;;;;;4.05;2.83;;;;;;;20.06;67.12;100074.44;6211933;23;20782;-62
2022/06/20 00:57:27;;;;;;;9.00;2.85;;;;;;;20.09;67.60;100067.78;6212140;23;20004;-62
2022/06/20 01:00:04;;;;;;;5.68;2.80;;;;;;;20.08;67.75;100066.94;6212150;23;20031;-62
2022/06/20 01:02:36;;;;;;;4.53;3.00;;;;;;;20.07;67.80;100067.13;6212203;23;20051;-62
2022/06/20 01:05:10;;;;;;;5.50;2.90;;;;;;;20.02;67.62;100065.00;6212043;23;20015;-62
2022/06/20 01:07:43;;;;;;;4.22;2.75;;;;;;;20.03;67.62;100065.88;6212253;23;20016;-62
2022/06/20 01:10:13;;;;;;;7.60;2.83;;;;;;;20.03;67.64;100065.88;6212573;23;20020;-62
2022/06/20 01:13:00;;;;;;;5.68;2.80;;;;;;;20.01;67.49;100055.19;6212258;23;20004;-62
2022/06/20 01:15:35;;;;;;;4.82;2.95;;;;;;;20.00;68.15;100039.84;6211959;23;20012;-62
2022/06/20 01:18:03;;;;;;;4.30;2.90;;;;;;;20.00;68.07;100033.59;6212147;23;20004;-62
2022/06/20 01:20:35;;;;;;;8.82;3.03;;;;;;;19.99;67.76;100038.19;6212030;23;20452;-62
2022/06/20 01:23:04;;;;;;;3.17;2.88;;;;;;;19.97;67.36;100026.69;6212034;23;20019;-63
2022/06/20 01:25:45;;;;;;;5.47;3.00;;;;;;;19.96;66.89;100024.16;6211912;23;20073;-63
2022/06/20 01:28:14;;;;;;;3.30;3.00;;;;;;;19.94;66.36;100026.22;6211868;23;20062;-62
2022/06/20 01:30:43;;;;;;;6.53;3.22;;;;;;;19.93;66.18;100021.84;6211896;23;20008;-62
2022/06/20 01:33:11;;;;;;;3.22;2.92;;;;;;;19.87;65.85;100009.84;6211701;23;20425;-62
2022/06/20 01:38:23;;;;;;;7.00;2.90;;;;;;;19.95;64.19;100014.28;6211586;23;20023;-62
2022/06/20 01:43:35;;;;;;;5.72;3.15;;;;;;;19.99;62.42;100012.84;6211845;23;20056;-62
2022/06/20 01:46:09;;;;;;;5.95;3.08;;;;;;;20.00;61.48;100009.91;6211598;23;20021;-62
2022/06/20 01:48:38;;;;;;;3.47;3.17;;;;;;;19.99;60.64;100010.13;6211634;23;20011;-62
2022/06/20 01:51:08;;;;;;;7.68;2.90;;;;;;;20.04;60.44;100011.22;6211511;23;20028;-62
2022/06/20 01:53:35;;;;;;;6.55;2.67;;;;;;;19.99;60.08;99994.63;6211366;23;20016;-62
2022/06/20 01:56:02;;;;;;;6.38;3.03;;;;;;;20.06;59.59;100005.56;6211643;23;20028;-62
2022/06/20 01:58:36;;;;;;;2.70;2.45;;;;;;;20.06;59.41;99997.41;6211742;23;20016;-63
2022/06/20 02:01:03;;;;;;;6.32;3.08;;;;;;;20.06;59.23;99995.50;6211479;23;20008;-62
2022/06/20 02:03:30;;;;;;;3.67;2.88;;;;;;;20.04;58.66;99991.28;6211413;23;20036;-62
2022/06/20 02:05:57;;;;;;;3.25;2.47;;;;;;;20.03;58.76;99995.91;6211648;23;20039;-62
2022/06/20 02:08:24;;;;;;;5.95;2.63;;;;;;;20.07;58.58;99989.03;6211136;23;20005;-63
2022/06/20 02:10:55;;;;;;;5.82;2.58;;;;;;;20.10;58.87;99990.50;6211419;23;20008;-63
2022/06/20 02:13:24;;;;;;;4.75;2.53;;;;;;;20.09;58.74;99986.91;6211239;23;20507;-63
2022/06/20 02:15:53;;;;;;;3.63;2.47;;;;;;;20.07;58.67;99983.56;6211515;23;20019;-63
2022/06/20 02:18:20;;;;;;;4.35;2.75;;;;;;;20.10;58.48;99991.34;6211492;23;20004;-62
2022/06/20 02:20:49;;;;;;;3.58;3.17;;;;;;;20.11;58.41;99994.88;6211292;23;20011;-63
2022/06/20 02:23:25;;;;;;;6.25;2.72;;;;;;;20.06;58.49;99986.50;6184617;23;20008;-63
2022/06/20 02:25:53;;;;;;;4.75;3.33;;;;;;;20.09;58.27;99992.38;6211441;23;20000;-63
2022/06/20 02:28:30;;;;;;;4.00;3.58;;;;;;;20.11;58.30;99993.03;6211524;23;20047;-62
2022/06/20 02:30:55;;;;;;;4.53;3.90;;;;;;;20.07;58.64;99991.75;6211435;23;20011;-63
2022/06/20 02:33:25;;;;;;;7.55;4.35;;;;;;;20.05;58.68;99982.94;6211677;23;20008;-62
2022/06/20 02:35:53;;;;;;;6.72;5.05;;;;;;;20.04;59.06;99978.53;6184803;23;20035;-63
2022/06/20 02:38:20;;;;;;;5.82;5.22;;;;;;;19.95;59.00;99966.13;6211541;23;20013;-62
2022/06/20 02:40:47;;;;;;;6.35;4.82;;;;;;;20.01;59.22;99975.38;6211762;23;20009;-63
2022/06/20 02:43:25;;;;;;;6.72;4.95;;;;;;;19.96;59.05;99972.44;6211895;23;20566;-63
2022/06/20 02:45:53;;;;;;;6.22;4.63;;;;;;;19.98;58.83;99981.22;6212562;23;20015;-62
2022/06/20 02:48:21;;;;;;;11.35;5.32;;;;;;;19.98;58.92;99987.50;6213700;23;20011;-63
2022/06/20 02:50:53;;;;;;;6.72;4.93;;;;;;;19.91;59.37;99978.47;6213375;23;20008;-62
2022/06/20 02:53:34;;;;;;;6.78;4.93;;;;;;;19.94;60.17;99982.66;6213259;23;20020;-63
2022/06/20 02:56:01;;;;;;;4.80;4.30;;;;;;;19.88;60.75;99972.59;6213532;23;20296;-63
2022/06/20 02:58:30;;;;;;;6.88;3.95;;;;;;;19.88;61.27;99975.31;6213608;23;20426;-62
2022/06/20 03:01:04;;;;;;;8.20;4.32;;;;;;;19.85;61.19;99971.13;6213397;23;20009;-62
2022/06/20 03:03:37;;;;;;;7.32;4.45;;;;;;;19.82;61.86;99966.06;6213336;23;20008;-61
2022/06/20 03:06:04;;;;;;;13.80;4.28;;;;;;;19.74;62.58;99959.97;6213304;23;20084;-63
2022/06/20 03:08:31;;;;;;;11.32;4.38;;;;;;;19.73;63.64;99955.53;6213273;23;20080;-63
2022/06/20 03:11:02;;;;;;;11.77;4.28;;;;;;;19.76;64.14;99958.72;6213325;23;20005;-62
2022/06/20 03:13:28;;;;;;;11.10;4.88;;;;;;;19.72;64.23;99951.16;6213351;23;20067;-63
2022/06/20 03:15:54;;;;;;;13.00;4.57;;;;;;;19.70;64.88;99945.09;6213193;23;20012;-62
2022/06/20 03:18:22;;;;;;;11.50;4.55;;;;;;;19.68;64.44;99944.44;6213049;23;20032;-63
2022/06/20 03:20:47;;;;;;;8.80;4.40;;;;;;;19.66;64.07;99949.25;6213243;23;20009;-63
2022/06/20 03:23:27;;;;;;;10.07;4.28;;;;;;;19.66;64.14;99952.81;6213402;23;20058;-63
2022/06/20 03:25:55;;;;;;;9.10;4.28;;;;;;;19.59;64.11;99935.63;6213102;23;20043;-62
2022/06/20 03:28:23;;;;;;;9.35;4.00;;;;;;;19.68;63.80;99945.31;6213178;23;20342;-62
2022/06/20 03:30:50;;;;;;;14.05;4.43;;;;;;;19.67;64.03;99935.44;6212826;23;20322;-63
2022/06/20 03:33:16;;;;;;;8.80;4.30;;;;;;;19.76;63.85;99939.66;6213047;23;20008;-63
2022/06/20 03:35:55;;;;;;;6.50;4.30;;;;;;;19.86;62.95;99945.56;6213242;23;20028;-63
2022/06/20 03:38:22;;;;;;;8.35;3.38;;;;;;;19.97;62.80;99949.59;6212868;23;20023;-62
2022/06/20 03:40:47;;;;;;;8.55;3.95;;;;;;;20.08;62.34;99947.13;6212959;23;20008;-62
2022/06/20 03:43:17;;;;;;;9.82;3.95;;;;;;;20.22;62.43;99949.91;6213067;23;20084;-63
2022/06/20 03:45:52;;;;;;;8.07;4.30;;;;;;;20.37;62.04;99950.59;6213144;23;20047;-63
2022/06/20 03:48:22;;;;;;;13.63;3.97;;;;;;;20.51;61.70;99938.66;6210239;23;20011;-62
2022/06/20 03:51:35;;;;;;;9.05;3.88;;;;;;;20.69;60.26;99947.06;6212634;23;20460;-63
2022/06/20 03:54:08;;;;;;;8.88;3.90;;;;;;;20.88;58.22;99951.69;6161961;23;20028;-63
2022/06/20 03:57:00;;;;;;;6.45;3.72;;;;;;;21.04;58.01;99943.97;6212653;23;20444;-63
2022/06/20 03:59:52;;;;;;;5.22;3.90;;;;;;;21.20;56.63;99950.88;6213081;23;20008;-62
2022/06/20 04:02:47;;;;;;;10.65;3.72;;;;;;;21.37;56.03;99949.34;6185723;23;20428;-62
2022/06/20 04:05:21;;;;;;;9.63;3.72;;;;;;;21.51;55.77;99949.13;6212784;23;20004;-63
2022/06/20 04:07:57;;;;;;;8.98;3.33;;;;;;;21.63;55.02;99950.13;6212555;23;20001;-63
2022/06/20 04:13:22;;;;;;;9.85;4.47;;;;;;;21.96;54.24;99947.34;6212666;23;20101;-62
2022/06/20 04:15:58;;;;;;;7.47;3.65;;;;;;;22.02;53.83;99955.50;6212313;23;20580;-62
2022/06/20 04:18:30;;;;;;;7.65;4.45;;;;;;;22.19;54.10;99964.84;6184113;23;20035;-63
2022/06/20 04:21:02;;;;;;;9.25;3.45;;;;;;;22.28;53.49;99958.09;6212386;23;20008;-62
2022/06/20 04:23:30;;;;;;;6.93;3.55;;;;;;;22.50;53.23;99968.72;6185784;23;20000;-62
2022/06/20 04:26:27;;;;;;;7.07;3.50;;;;;;;22.63;52.19;99960.44;6212229;23;20004;-62
2022/06/20 04:29:01;;;;;;;7.68;3.55;;;;;;;22.89;51.57;99965.72;6211548;23;20012;-62
2022/06/20 04:31:54;;;;;;;7.38;4.15;;;;;;;23.02;51.40;99958.22;6212392;23;20008;-61
2022/06/20 04:34:41;;;;;;;8.23;3.53;;;;;;;23.21;50.77;99953.66;6212241;23;20008;-62
2022/06/20 04:37:20;;;;;;;11.80;4.28;;;;;;;23.37;50.26;99948.47;6185501;23;20032;-62
2022/06/20 04:39:57;;;;;;;8.52;3.25;;;;;;;23.47;50.12;99948.78;6212545;23;20485;-62
2022/06/20 04:43:04;;;;;;;6.47;3.80;;;;;;;23.61;49.73;99944.00;6212425;23;20063;-62
2022/06/20 04:45:56;;;;;;;6.68;4.05;;;;;;;23.74;49.23;99952.91;6212212;23;20059;-62
2022/06/20 04:48:24;;;;;;;7.70;3.47;;;;;;;23.78;48.77;99925.88;6199793;23;20019;-62
2022/06/20 04:50:55;;;;;;;11.30;3.70;;;;;;;23.94;48.41;99928.88;6212290;23;20004;-62
2022/06/20 04:53:24;;;;;;;7.75;3.00;;;;;;;24.05;47.83;99925.34;6211927;23;20123;-62
2022/06/20 04:55:57;;;;;;;6.72;3.75;;;;;;;24.26;47.88;99941.31;6212232;23;20000;-62
2022/06/20 04:58:28;;;;;;;7.15;3.40;;;;;;;24.40;47.38;99934.56;6212082;23;20012;-62
2022/06/20 05:00:56;;;;;;;7.22;3.75;;;;;;;24.53;47.47;99943.69;6212329;23;20008;-62
2022/06/20 05:03:28;;;;;;;7.05;3.90;;;;;;;24.74;46.68;99940.41;6212194;23;20013;-62
2022/06/20 05:05:56;;;;;;;3.95;3.10;;;;;;;24.88;46.79;99953.69;6212588;23;20004;-62
2022/06/20 05:08:28;;;;;;;6.25;3.47;;;;;;;25.00;46.39;99945.47;6212086;23;20334;-62
2022/06/20 05:11:32;;;;;;;7.22;3.10;;;;;;;25.15;46.21;99943.09;6212426;23;20058;-63
2022/06/20 05:14:14;;;;;;;8.55;3.92;;;;;;;25.33;45.75;99935.63;6120027;23;20010;-62
2022/06/20 05:16:47;;;;;;;6.45;3.38;;;;;;;25.47;45.52;99934.28;6202950;23;20024;-62
2022/06/20 05:19:19;;;;;;;11.00;3.40;;;;;;;25.62;45.14;99926.41;6211851;23;20028;-62
2022/06/20 05:21:49;;;;;;;9.20;3.65;;;;;;;25.67;44.97;99917.44;6212178;23;20075;-63
2022/06/20 05:24:18;;;;;;;5.60;3.40;;;;;;;25.86;44.86;99932.69;6212015;23;20050;-62
2022/06/20 05:26:48;;;;;;;4.10;2.88;;;;;;;25.98;44.89;99923.34;6212015;23;20000;-63
2022/06/20 05:29:21;;;;;;;6.18;3.33;;;;;;;26.02;44.64;99912.72;6212035;23;20039;-62
2022/06/20 05:31:55;;;;;;;11.00;3.22;;;;;;;26.31;44.11;99931.72;6211661;23;20001;-62
2022/06/20 05:34:29;;;;;;;6.68;3.60;;;;;;;26.44;43.88;99936.91;6211881;23;20087;-62
2022/06/20 05:37:10;;;;;;;8.98;3.58;;;;;;;26.58;43.59;99942.94;6211778;23;20011;-62
2022/06/20 05:39:51;;;;;;;5.55;3.13;;;;;;;26.73;43.42;99937.78;6185319;23;20008;-62
2022/06/20 05:42:18;;;;;;;6.65;3.20;;;;;;;26.87;43.15;99939.09;6211809;23;20054;-63
2022/06/20 05:44:44;;;;;;;8.45;3.30;;;;;;;27.00;43.07;99936.03;6211632;23;20015;-62
2022/06/20 05:47:20;;;;;;;4.93;3.50;;;;;;;27.08;42.98;99938.34;6209717;23;20004;-62
2022/06/20 05:49:54;;;;;;;4.75;2.95;;;;;;;27.26;42.49;99940.88;6210890;23;20087;-62
2022/06/20 05:52:23;;;;;;;4.38;2.50;;;;;;;27.40;42.36;99931.16;6210489;23;20005;-62
2022/06/20 05:54:57;;;;;;;5.68;2.80;;;;;;;27.57;42.02;99940.22;6211886;23;20020;-62
2022/06/20 05:57:25;;;;;;;4.75;3.22;;;;;;;27.63;41.56;99927.38;6211358;23;20016;-62
2022/06/20 06:00:06;;;;;;;7.63;3.42;;;;;;;27.80;41.06;99934.53;6211883;23;20090;-62
2022/06/20 06:02:44;;;;;;;4.38;3.08;;;;;;;27.89;41.22;99944.00;6210811;23;20004;-63
2022/06/20 06:05:28;;;;;;;4.45;2.80;;;;;;;28.05;41.30;99934.03;6210691;23;20009;-62
2022/06/20 06:07:53;;;;;;;8.05;3.10;;;;;;;28.22;41.20;99940.31;6211000;23;20004;-63
2022/06/20 06:10:26;;;;;;;5.68;3.35;;;;;;;28.36;40.83;99933.28;6210869;23;20031;-62
2022/06/20 06:13:01;;;;;;;3.53;3.03;;;;;;;28.48;41.03;99937.59;6210855;23;20001;-63
2022/06/20 06:15:39;;;;;;;7.18;3.00;;;;;;;28.61;40.79;99932.75;6184153;23;20308;-63
2022/06/20 06:18:12;;;;;;;5.95;2.70;;;;;;;28.71;40.30;99927.31;6183970;23;20091;-63
2022/06/20 06:20:37;;;;;;;7.15;3.15;;;;;;;28.87;40.26;99937.41;6210740;23;20388;-63
2022/06/20 06:23:07;;;;;;;4.70;2.97;;;;;;;29.01;39.68;99933.94;6210758;23;20050;-63
2022/06/20 06:25:37;;;;;;;4.82;2.90;;;;;;;29.13;39.59;99936.56;6211115;23;20496;-63
2022/06/20 06:28:14;;;;;;;4.40;2.50;;;;;;;29.26;39.08;99933.34;6210661;23;20000;-63
2022/06/20 06:30:48;;;;;;;4.43;2.42;;;;;;;29.47;38.26;99937.91;6210970;23;20026;-63
2022/06/20 06:33:28;;;;;;;4.05;2.75;;;;;;;29.55;38.91;99926.34;6184464;23;20012;-63
2022/06/20 06:36:01;;;;;;;3.03;2.60;;;;;;;29.78;37.75;99948.06;6211142;23;20012;-63
2022/06/20 06:38:32;;;;;;;2.92;2.47;;;;;;;29.94;37.86;99955.34;6184297;23;20184;-63
2022/06/20 06:41:00;;;;;;;5.43;2.90;;;;;;;30.05;37.71;99951.53;6211178;23;20028;-63
2022/06/20 06:43:37;;;;;;;3.42;2.60;;;;;;;30.15;37.49;99948.81;6211063;23;20319;-63
2022/06/20 06:46:10;;;;;;;8.82;2.50;;;;;;;30.32;37.04;99938.38;6207071;23;20019;-63
2022/06/20 06:48:54;;;;;;;4.05;1.98;;;;;;;30.50;36.29;99935.94;6183565;23;20019;-63
2022/06/20 06:51:22;;;;;;;;;;;;;;;30.61;36.16;99945.09;6184885;23;20023;-63
2022/06/20 06:54:03;;;;;;;4.13;2.45;;;;;;;30.84;35.21;99947.38;6210794;23;19987;-63
2022/06/20 06:56:42;;;;;;;3.95;2.20;;;;;;;30.99;34.83;99935.47;6210976;23;20015;-63
2022/06/20 06:59:40;;;;;;;3.05;2.42;;;;;;;31.13;34.59;99933.81;6211066;23;20322;-63
2022/06/20 07:02:18;;;;;;;4.05;2.45;;;;;;;31.29;34.10;99933.56;6197963;23;20004;-63
2022/06/20 07:04:59;;;;;;;4.43;2.38;;;;;;;31.52;33.18;99932.97;6211048;23;20005;-63
2022/06/20 07:07:36;;;;;;;3.33;2.50;;;;;;;31.61;33.25;99936.00;6210832;23;20352;-63
2022/06/20 07:10:02;;;;;;;3.03;2.17;;;;;;;31.68;33.29;99928.22;6210866;23;20015;-63
2022/06/20 07:12:36;;;;;;;2.88;2.35;;;;;;;31.81;32.96;99928.47;6210864;23;20390;-64
2022/06/20 07:15:17;;;;;;;4.90;2.17;;;;;;;31.93;32.76;99917.91;6211245;23;20016;-63
2022/06/20 07:17:49;;;;;;;5.78;2.15;;;;;;;32.06;32.37;99928.41;6210392;23;20028;-63
2022/06/20 07:20:16;;;;;;;2.40;2.20;;;;;;;32.21;32.29;99931.06;6210922;23;20040;-63
2022/06/20 07:22:44;;;;;;;2.38;2.17;;;;;;;32.31;31.72;99931.03;6210670;23;20012;-63
2022/06/20 07:25:19;;;;;;;3.15;2.33;;;;;;;32.42;31.44;99917.94;6209368;23;20166;-63
2022/06/20 07:28:02;;;;;;;2.30;2.08;;;;;;;32.45;31.17;99912.66;6210906;23;20011;-63
2022/06/20 07:30:33;;;;;;;3.63;2.17;;;;;;;32.60;31.39;99912.53;6210501;23;20008;-63
2022/06/20 07:33:06;;;;;;;2.05;1.85;;;;;;;32.70;31.28;99911.66;6212251;23;20032;-63
2022/06/20 07:35:37;;;;;;;2.40;2.20;;;;;;;32.79;30.73;99914.66;6212878;23;20004;-63
2022/06/20 07:38:13;;;;;;;5.18;2.22;;;;;;;32.83;30.63;99910.16;6212792;23;20023;-63
2022/06/20 07:40:50;;;;;;;4.93;2.92;;;;;;;32.86;30.61;99904.91;6212945;23;20316;-62
2022/06/20 07:43:19;;;;;;;2.83;2.00;;;;;;;32.96;30.80;99901.19;6212604;23;20008;-64
2022/06/20 07:45:48;;;;;;;2.47;1.88;;;;;;;33.00;29.86;99888.38;6212335;23;20017;-63
2022/06/20 07:48:20;;;;;;;2.05;1.85;;;;;;;33.18;29.82;99898.78;6212608;23;20008;-63
2022/06/20 07:51:02;;;;;;;2.25;1.73;;;;;;;33.36;29.94;99893.34;6185943;23;20092;-63
2022/06/20 07:53:38;;;;;;;3.35;1.92;;;;;;;33.41;29.49;99884.13;6212207;23;20020;-64
2022/06/20 07:56:21;;;;;;;3.58;2.40;;;;;;;33.47;29.03;99878.22;6212400;23;20032;-63
2022/06/20 07:58:59;;;;;;;2.00;1.90;;;;;;;33.56;29.03;99883.97;6212775;23;20009;-63
2022/06/20 08:01:44;;;;;;;3.17;2.35;;;;;;;33.69;28.15;99880.47;6212139;23;20005;-63
2022/06/20 08:04:11;;;;;;;2.35;1.90;;;;;;;33.68;28.64;99871.28;6212328;23;20078;-63
2022/06/20 08:06:36;;;;;;;4.90;2.08;;;;;;;33.83;28.17;99876.69;6212414;23;20011;-63
2022/06/20 08:09:12;;;;;;;2.25;1.90;;;;;;;33.91;28.07;99873.25;6212469;23;20000;-63
2022/06/20 08:11:55;;;;;;;2.35;1.92;;;;;;;33.99;28.19;99875.38;6212250;23;20039;-63
2022/06/20 08:14:41;;;;;;;2.10;1.90;;;;;;;34.11;27.81;99874.94;6212147;23;20004;-63
2022/06/20 08:17:10;;;;;;;4.32;1.83;;;;;;;34.12;27.64;99879.38;6211859;23;20016;-63
2022/06/20 08:19:39;;;;;;;2.40;2.20;;;;;;;34.15;27.78;99868.50;6212109;23;20008;-63
2022/06/20 08:22:20;;;;;;;2.65;2.13;;;;;;;34.05;27.95;99885.31;6185396;23;20409;-64
2022/06/20 08:24:57;;;;;;;2.53;1.90;;;;;;;34.03;28.05;99873.66;6212048;23;20028;-63
2022/06/20 08:27:43;;;;;;;2.92;2.00;;;;;;;34.08;27.66;99872.75;6212298;23;20005;-63
2022/06/20 08:30:18;;;;;;;2.97;1.70;;;;;;;34.15;27.65;99865.69;6211719;23;20008;-63
2022/06/20 08:32:59;;;;;;;5.50;2.00;;;;;;;34.16;27.47;99863.72;6211910;23;20009;-63
2022/06/20 08:35:37;;;;;;;4.72;2.10;;;;;;;34.18;27.69;99851.16;6212254;23;20083;-63
2022/06/20 08:38:23;;;;;;;3.63;2.00;;;;;;;34.31;27.03;99855.16;6212067;23;20350;-63
2022/06/20 08:41:00;;;;;;;3.03;1.90;;;;;;;34.40;26.82;99858.97;6212169;23;20039;-63
2022/06/20 08:43:47;;;;;;;2.08;1.77;;;;;;;34.43;27.13;99850.00;6211927;23;20070;-63
2022/06/20 08:46:40;;;;;;;4.15;1.63;;;;;;;34.43;26.68;99850.81;6184739;23;20141;-63
2022/06/20 08:49:38;;;;;;;2.30;1.60;;;;;;;34.49;25.93;99848.78;6212306;23;20008;-63
2022/06/20 08:52:25;;;;;;;2.00;1.80;;;;;;;34.49;25.96;99845.97;6210987;23;20324;-63
2022/06/20 08:55:31;;;;;;;2.90;1.85;;;;;;;34.52;25.88;99845.38;6209160;23;20013;-63
2022/06/20 08:58:09;;;;;;;1.90;1.70;;;;;;;34.57;26.41;99848.09;6185503;23;20020;-64
2022/06/20 09:00:46;;;;;;;6.78;1.50;;;;;;;34.57;26.24;99848.09;6211040;23;20005;-64
2022/06/20 09:03:41;;;;;;;4.65;1.50;;;;;;;34.53;26.16;99827.56;6211160;23;20001;-63
2022/06/20 09:06:07;;;;;;;3.22;2.00;;;;;;;34.60;26.31;99816.84;6167594;23;20087;-63
2022/06/20 09:09:03;;;;;;;3.20;1.80;;;;;;;34.64;26.12;99817.88;6209945;23;20005;-63
2022/06/20 09:12:13;;;;;;;3.40;1.67;;;;;;;34.69;25.24;99817.81;6211628;23;20015;-64
2022/06/20 09:15:04;;;;;;;2.25;1.67;;;;;;;34.76;25.34;99798.72;6206900;23;20407;-64
2022/06/20 09:17:55;;;;;;;3.40;1.95;;;;;;;34.80;25.76;99796.16;6211769;23;20009;-64
2022/06/20 09:20:35;;;;;;;3.33;1.70;;;;;;;34.86;25.54;99786.59;6211541;23;20078;-63
2022/06/20 09:23:28;;;;;;;2.13;1.75;;;;;;;34.91;25.20;99800.47;6211745;23;20009;-63
2022/06/20 09:26:17;;;;;;;3.88;1.90;;;;;;;34.97;25.25;99793.66;6211737;23;20318;-63
2022/06/20 09:28:57;;;;;;;2.22;1.60;;;;;;;34.97;25.20;99797.25;6211600;23;20406;-63
2022/06/20 09:31:29;;;;;;;3.47;1.88;;;;;;;35.02;25.03;99788.81;6211131;23;20020;-64
2022/06/20 09:34:22;;;;;;;2.42;1.80;;;;;;;35.02;24.66;99777.66;6211710;23;20080;-63
2022/06/20 09:37:10;;;;;;;3.37;1.80;;;;;;;35.01;24.99;99775.16;6211800;23;20027;-63
2022/06/20 09:39:58;;;;;;;2.88;1.70;;;;;;;34.99;24.91;99780.22;6211570;23;20300;-63
2022/06/20 09:42:40;;;;;;;3.15;1.63;;;;;;;35.05;24.71;99776.19;6211361;23;20384;-63
2022/06/20 09:45:18;;;;;;;2.88;1.77;;;;;;;35.13;24.65;99778.25;6211420;23;20011;-63
2022/06/20 09:47:49;;;;;;;3.35;1.77;;;;;;;35.17;24.31;99776.53;6184737;23;20017;-72
2022/06/20 09:50:49;;;;;;;2.28;1.60;;;;;;;35.16;24.27;99772.91;6211384;23;20342;-71
2022/06/20 09:53:27;;;;;;;2.42;1.38;;;;;;;35.18;24.34;99765.06;6204701;23;20028;-71
2022/06/20 09:56:03;;;;;;;4.05;1.70;;;;;;;35.19;24.36;99763.09;6181161;23;20473;-71
2022/06/20 09:59:06;;;;;;;2.78;1.65;;;;;;;35.23;24.75;99759.38;6181484;23;20023;-71
2022/06/20 10:01:37;;;;;;;3.38;1.75;;;;;;;35.28;25.00;99756.50;6181584;23;19997;-72
2022/06/20 10:04:08;;;;;;;2.88;1.75;;;;;;;35.37;24.37;99748.25;6181908;23;20001;-72
2022/06/20 10:07:12;;;;;;;3.88;2.05;;;;;;;35.38;23.79;99753.53;6181694;23;20478;-72
2022/06/20 10:09:54;;;;;;;2.85;1.80;;;;;;;35.40;23.86;99745.66;6181424;23;20960;-71
2022/06/20 10:12:40;;;;;;;4.45;1.45;;;;;;;35.40;23.77;99748.44;6181121;23;20099;-71
2022/06/20 10:15:40;;;;;;;2.63;1.60;;;;;;;35.46;24.10;99744.41;6180969;23;20008;-71
2022/06/20 10:18:35;;;;;;;2.30;1.50;;;;;;;35.45;23.50;99736.34;6170606;23;20027;-71
2022/06/20 10:21:00;;;;;;;;;;;;;;;35.33;23.67;99725.72;6181964;23;20390;-71
2022/06/20 10:23:44;;;;;;;3.95;1.63;;;;;;;35.38;23.98;99722.00;6180965;23;19912;-71
2022/06/20 10:26:30;;;;;;;2.47;1.60;;;;;;;35.37;23.84;99729.56;6181169;23;20338;-71
2022/06/20 10:29:18;;;;;;;3.92;1.70;;;;;;;35.39;23.87;99715.28;6181268;23;20009;-71
2022/06/20 10:31:48;;;;;;;4.30;1.65;;;;;;;35.37;23.92;99703.63;6132398;23;20078;-71
2022/06/20 10:34:25;;;;;;;1.67;1.50;;;;;;;35.36;24.12;99708.38;6181379;23;20008;-71
2022/06/20 10:36:56;;;;;;;3.60;1.88;;;;;;;35.27;24.28;99693.44;6181454;23;20005;-71
2022/06/20 10:39:25;;;;;;;2.03;1.40;;;;;;;35.29;24.30;99709.88;6181582;23;20524;-71
2022/06/20 10:41:53;;;;;;;3.75;1.77;;;;;;;35.27;24.06;99704.63;6179478;23;20001;-71
2022/06/20 10:45:13;;;;;;;2.05;1.50;;;;;;;35.29;23.33;99698.72;6181098;23;20043;-71
2022/06/20 10:48:05;;;;;;;5.97;1.58;;;;;;;35.20;23.46;99701.41;6060555;23;20326;-71
2022/06/20 10:50:48;;;;;;;3.13;1.48;;;;;;;35.21;23.68;99703.09;6177499;23;20009;-71
2022/06/20 10:53:34;;;;;;;2.78;1.50;;;;;;;35.21;23.48;99691.94;6188376;23;20025;-71
2022/06/20 10:56:31;;;;;;;2.95;1.70;;;;;;;35.22;23.09;99698.31;6210951;23;20072;-71
2022/06/20 10:59:08;;;;;;;2.70;1.60;;;;;;;35.20;23.16;99687.47;6211053;23;20431;-71
2022/06/20 11:02:25;;;;;;;2.65;1.50;;;;;;;35.18;23.75;99688.94;6184345;23;20012;-72
2022/06/20 11:05:16;;;;;;;3.08;1.88;;;;;;;35.23;23.22;99689.66;6118562;23;20006;-72
2022/06/20 11:07:52;;;;;;;3.20;1.90;;;;;;;35.22;23.75;99687.16;6207953;23;20681;-71
2022/06/20 11:10:31;;;;;;;2.80;1.67;;;;;;;35.25;23.59;99694.91;6185922;23;20008;-72
2022/06/20 11:13:06;;;;;;;2.17;1.50;;;;;;;35.23;23.38;99680.47;6212872;23;20444;-71
2022/06/20 11:15:35;;;;;;;2.10;1.60;;;;;;;35.22;22.63;99676.84;6212706;23;20016;-71
2022/06/20 11:18:25;;;;;;;2.05;1.67;;;;;;;35.14;23.23;99646.06;6212923;23;20000;-71
2022/06/20 11:21:03;;;;;;;4.00;1.88;;;;;;;35.17;23.33;99662.19;6212741;23;20342;-72
2022/06/20 11:23:37;;;;;;;3.20;1.65;;;;;;;35.20;22.92;99661.56;6212615;23;20013;-72
2022/06/20 11:26:18;;;;;;;3.83;1.65;;;;;;;35.13;23.23;99658.34;6212836;23;20004;-72
2022/06/20 11:28:49;;;;;;;2.17;1.35;;;;;;;35.06;23.73;99661.56;6212745;23;20004;-72
2022/06/20 11:31:54;;;;;;;1.77;1.60;;;;;;;35.05;23.57;99661.88;6185600;23;20008;-72
2022/06/20 11:34:41;;;;;;;1.80;1.60;;;;;;;35.02;23.70;99652.19;6154678;23;20004;-72
2022/06/20 11:37:09;;;;;;;1.70;1.60;;;;;;;35.06;24.00;99655.16;6211013;23;20406;-72
2022/06/20 11:39:54;;;;;;;2.47;1.80;;;;;;;35.05;23.69;99657.13;6212683;23;20008;-72
2022/06/20 11:42:54;;;;;;;2.75;1.60;;;;;;;35.10;23.33;99651.44;6212592;23;20039;-72
2022/06/20 11:45:28;;;;;;;4.05;1.77;;;;;;;35.09;23.56;99644.22;6212513;23;20008;-72
2022/06/20 11:48:03;;;;;;;3.97;1.90;;;;;;;35.07;23.81;99631.72;6212522;23;20095;-72
2022/06/20 11:50:34;;;;;;;4.05;1.55;;;;;;;35.06;23.92;99638.44;6186092;23;20021;-72
2022/06/20 11:53:16;;;;;;;2.72;1.83;;;;;;;35.09;23.85;99638.66;6212476;23;20495;-71
2022/06/20 11:56:21;;;;;;;2.05;1.63;;;;;;;35.09;23.99;99635.84;6212551;23;20008;-72
2022/06/20 11:59:06;;;;;;;;;;;;;;;35.08;23.40;99637.00;6185794;23;20482;-72
2022/06/20 12:02:16;;;;;;;2.20;1.45;;;;;;;35.12;23.36;99621.28;6211901;23;19911;-72
2022/06/20 12:04:58;;;;;;;7.15;1.60;;;;;;;35.09;23.52;99609.91;6211952;23;20005;-72
2022/06/20 12:07:40;;;;;;;1.40;1.30;;;;;;;35.13;23.30;99617.34;6209950;23;20009;-72
2022/06/20 12:10:24;;;;;;;2.35;1.65;;;;;;;35.13;23.83;99631.31;6211961;23;20677;-72
2022/06/20 12:12:49;;;;;;;;;;;;;;;35.10;24.19;99634.72;6212147;23;20513;-72
2022/06/20 12:15:29;;;;;;;3.57;1.80;;;;;;;35.11;24.33;99630.81;6211799;23;19932;-72
2022/06/20 12:18:07;;;;;;;1.95;1.55;;;;;;;35.14;24.29;99632.94;6184722;23;20338;-71
2022/06/20 12:23:37;;;;;;;4.05;1.92;;;;;;;35.10;24.45;99626.34;6211813;23;20011;-72
2022/06/20 12:26:11;;;;;;;3.25;1.92;;;;;;;35.10;24.56;99620.75;6212050;23;20357;-72